Time;durP1;ratioP1;P1;durP2;ratioP2;P2;SDS_P1;SDS_P2;PMS_P1;PMS_P2;Temp;Humidity;BMP_temperature;BMP_pressure;BME280_temperature;BME280_humidity;BME280_pressure;Samples;Min_cycle;Max_cycle;Signal;HPM_P1;HPM_P2
2022/01/21 00:00:07;;;;;;;10.05;4.80;;;;;;;1.16;100.00;97284.13;4968781;28;20065;-49
2022/01/21 00:02:38;;;;;;;5.25;4.75;;;;;;;1.18;100.00;97293.56;4969543;28;20070;-45
2022/01/21 00:05:07;;;;;;;6.25;4.60;;;;;;;1.23;100.00;97288.16;4967546;28;20066;-45
2022/01/21 00:07:36;;;;;;;8.32;5.20;;;;;;;1.19;100.00;97290.03;4965932;28;20461;-52
2022/01/21 00:10:05;;;;;;;5.22;4.65;;;;;;;1.19;100.00;97295.22;4969213;28;20561;-47
2022/01/21 00:12:35;;;;;;;8.95;5.13;;;;;;;1.26;100.00;97300.16;4968707;28;20065;-47
2022/01/21 00:15:06;;;;;;;9.80;5.38;;;;;;;1.17;100.00;97286.69;4970586;28;20077;-45
2022/01/21 00:17:34;;;;;;;10.02;5.53;;;;;;;1.15;100.00;97283.28;4973124;28;20081;-49
2022/01/21 00:31:09;;;;;;;6.53;4.72;;;;;;;1.34;100.00;97300.66;4972097;28;20478;-47
2022/01/21 00:33:38;;;;;;;6.40;5.80;;;;;;;1.10;100.00;97295.66;4964713;28;20066;-48
2022/01/21 00:36:09;;;;;;;6.47;5.03;;;;;;;1.31;100.00;97304.28;4970929;28;20085;-47
2022/01/21 00:38:40;;;;;;;;;;;;;;;1.33;100.00;97305.03;4967675;28;20082;-51
2022/01/21 00:41:09;;;;;;;5.68;4.93;;;;;;;1.34;100.00;97305.88;4978733;28;19980;-45
2022/01/21 00:43:44;;;;;;;6.38;5.28;;;;;;;1.39;100.00;97311.72;4966557;28;20066;-44
2022/01/21 00:46:13;;;;;;;9.43;5.93;;;;;;;1.39;100.00;97314.31;4969264;28;20074;-46
2022/01/21 00:48:42;;;;;;;5.72;4.32;;;;;;;1.37;100.00;97313.53;4968176;28;20470;-47
2022/01/21 00:51:12;;;;;;;5.32;4.93;;;;;;;1.45;100.00;97321.84;4971237;28;20074;-48
2022/01/21 00:53:40;;;;;;;8.20;5.00;;;;;;;1.37;100.00;97316.97;4967988;28;20358;-51
2022/01/21 00:56:09;;;;;;;6.80;5.05;;;;;;;1.49;100.00;97309.56;4972149;28;20544;-46
2022/01/21 00:58:37;;;;;;;5.85;5.25;;;;;;;1.56;100.00;97318.78;4969301;28;20071;-48
2022/01/21 01:01:06;;;;;;;6.60;4.75;;;;;;;1.38;100.00;97325.63;4970337;28;20526;-48
2022/01/21 01:03:35;;;;;;;8.88;5.40;;;;;;;1.33;100.00;97331.00;4968633;28;20062;-47
2022/01/21 01:06:03;;;;;;;5.97;5.38;;;;;;;1.45;100.00;97347.00;4971464;28;20073;-46
2022/01/21 01:08:33;;;;;;;5.47;3.80;;;;;;;1.50;100.00;97347.63;4985327;28;20062;-46
2022/01/21 01:11:23;;;;;;;5.20;4.78;;;;;;;1.52;100.00;97351.03;4966495;28;20079;-42
2022/01/21 01:22:10;;;;;;;5.10;4.45;;;;;;;1.49;100.00;97354.59;4983972;28;20148;-47
2022/01/21 01:27:41;;;;;;;9.80;6.03;;;;;;;1.65;100.00;97352.16;4971514;28;20067;-45
2022/01/21 01:30:13;;;;;;;12.38;5.60;;;;;;;1.57;100.00;97356.84;4968846;28;20501;-44
2022/01/21 01:32:42;;;;;;;8.75;5.65;;;;;;;1.67;100.00;97366.78;4964343;28;20548;-44
2022/01/21 01:35:13;;;;;;;6.88;4.65;;;;;;;1.75;100.00;97370.78;4964767;28;20066;-44
2022/01/21 01:38:05;;;;;;;;;;;;;;;1.66;100.00;97379.84;4961670;28;20532;-49
2022/01/21 01:40:40;;;;;;;4.35;4.05;;;;;;;1.48;100.00;97384.09;4960212;28;19961;-49
2022/01/21 01:51:34;;;;;;;4.50;4.00;;;;;;;1.82;100.00;97385.19;4954779;28;20505;-43
2022/01/21 01:54:09;;;;;;;3.80;3.50;;;;;;;1.61;100.00;97400.81;4970262;28;20085;-44
2022/01/21 01:56:40;;;;;;;3.88;3.67;;;;;;;1.45;100.00;97401.59;4971878;28;20078;-45
2022/01/21 01:59:09;;;;;;;5.68;4.00;;;;;;;1.56;100.00;97394.16;4966575;28;20066;-44
2022/01/21 02:01:38;;;;;;;3.53;3.33;;;;;;;1.37;100.00;97396.69;4968950;28;20085;-46
2022/01/21 02:04:07;;;;;;;3.95;3.65;;;;;;;1.15;100.00;97387.19;4967241;28;20065;-50
2022/01/21 02:06:35;;;;;;;4.00;3.80;;;;;;;1.88;100.00;97377.13;4965532;28;20077;-48
2022/01/21 02:09:04;;;;;;;3.47;3.28;;;;;;;2.03;100.00;97384.25;4965871;28;20062;-45
2022/01/21 02:11:32;;;;;;;4.20;3.92;;;;;;;2.23;100.00;97378.13;4968519;28;20158;-47
2022/01/21 02:14:10;;;;;;;4.05;3.65;;;;;;;2.55;100.00;97368.84;4970940;28;20085;-49
2022/01/21 02:16:55;;;;;;;7.93;4.00;;;;;;;1.84;100.00;97371.22;4968055;28;20070;-43
2022/01/21 02:22:10;;;;;;;4.97;4.20;;;;;;;1.79;100.00;97352.41;4935770;28;20489;-46
2022/01/21 02:24:48;;;;;;;5.22;4.47;;;;;;;1.70;100.00;97363.19;4966280;28;20061;-46
2022/01/21 02:27:17;;;;;;;9.40;5.22;;;;;;;1.66;100.00;97361.66;4966826;28;20446;-42
2022/01/21 02:29:48;;;;;;;5.05;4.47;;;;;;;1.49;100.00;97361.56;4961255;28;20175;-44
2022/01/21 02:32:17;;;;;;;;;;;;;;;1.66;100.00;97362.50;4969670;28;20071;-48
2022/01/21 02:34:46;;;;;;;6.93;5.35;;;;;;;1.38;100.00;97354.22;4969504;28;19945;-47
2022/01/21 02:37:19;;;;;;;6.68;5.40;;;;;;;1.81;100.00;97354.91;4966065;28;20073;-47
2022/01/21 02:39:48;;;;;;;8.35;5.45;;;;;;;1.84;100.00;97355.63;4967384;28;20066;-49
2022/01/21 02:42:17;;;;;;;6.18;4.95;;;;;;;1.47;100.00;97355.56;4968386;28;20075;-48
2022/01/21 02:44:46;;;;;;;9.02;5.70;;;;;;;1.85;100.00;97354.69;4966628;28;20532;-49
2022/01/21 02:47:14;;;;;;;10.57;5.78;;;;;;;1.71;100.00;97364.03;4966657;28;20062;-45
2022/01/21 02:49:43;;;;;;;7.88;5.88;;;;;;;1.93;100.00;97354.38;4964457;28;20077;-47
2022/01/21 02:52:13;;;;;;;9.68;6.18;;;;;;;1.74;100.00;97353.50;4963495;28;20062;-46
2022/01/21 02:54:43;;;;;;;;;;;;;;;1.86;100.00;97361.63;4963659;28;20058;-46
2022/01/21 02:57:12;;;;;;;9.00;6.20;;;;;;;2.01;100.00;97359.22;4963315;28;19965;-49
2022/01/21 02:59:41;;;;;;;7.88;5.28;;;;;;;1.92;100.00;97350.06;4971571;28;20085;-46
2022/01/21 03:02:10;;;;;;;8.70;6.20;;;;;;;2.20;100.00;97367.00;4966896;28;20085;-49
2022/01/21 03:04:47;;;;;;;12.40;6.07;;;;;;;2.02;100.00;97360.91;4963111;28;20460;-47
2022/01/21 03:07:16;;;;;;;6.63;5.28;;;;;;;1.94;100.00;97371.66;4969148;28;20519;-46
2022/01/21 03:09:46;;;;;;;9.38;6.28;;;;;;;2.28;100.00;97370.97;4968055;28;20521;-47
2022/01/21 03:12:14;;;;;;;7.10;5.85;;;;;;;2.02;100.00;97366.09;4968436;28;20474;-48
2022/01/21 03:14:43;;;;;;;11.43;6.43;;;;;;;2.09;100.00;97365.75;4964997;28;20114;-48
2022/01/21 03:17:11;;;;;;;10.43;6.63;;;;;;;2.26;100.00;97370.19;4968562;28;20082;-45
2022/01/21 03:19:40;;;;;;;14.15;5.93;;;;;;;2.18;100.00;97371.47;4967040;28;20112;-44
2022/01/21 03:22:09;;;;;;;11.45;5.55;;;;;;;1.99;100.00;97376.66;4967228;28;20121;-43
2022/01/21 03:24:38;;;;;;;7.05;5.38;;;;;;;2.07;100.00;97372.81;4962408;28;20510;-47
2022/01/21 03:27:08;;;;;;;8.95;5.80;;;;;;;2.08;100.00;97377.06;4967997;28;20104;-50
2022/01/21 03:29:37;;;;;;;6.13;5.45;;;;;;;1.84;100.00;97375.59;4964544;28;20082;-47
2022/01/21 03:32:06;;;;;;;4.55;4.25;;;;;;;2.00;100.00;97376.59;4969091;28;20576;-44
2022/01/21 03:34:35;;;;;;;17.17;6.53;;;;;;;2.18;100.00;97374.91;4962540;28;20062;-48
2022/01/21 03:37:04;;;;;;;8.55;5.07;;;;;;;2.06;100.00;97378.06;4970409;28;20375;-48
2022/01/21 03:39:32;;;;;;;6.97;5.30;;;;;;;1.93;100.00;97377.78;4967440;28;20070;-45
2022/01/21 03:42:01;;;;;;;5.40;4.32;;;;;;;2.08;100.00;97378.84;4966707;28;20073;-50
2022/01/21 03:44:31;;;;;;;6.07;4.47;;;;;;;1.95;100.00;97381.16;4966209;28;20085;-47
2022/01/21 03:46:59;;;;;;;4.55;3.92;;;;;;;2.08;100.00;97386.66;4969991;28;20085;-46
2022/01/21 03:49:35;;;;;;;7.25;5.13;;;;;;;2.05;100.00;97387.63;4963420;28;20047;-46
2022/01/21 03:52:05;;;;;;;5.63;4.68;;;;;;;2.20;100.00;97386.06;4966068;28;20133;-45
2022/01/21 03:54:35;;;;;;;9.50;5.63;;;;;;;2.13;100.00;97385.53;4966222;28;20077;-46
2022/01/21 03:57:04;;;;;;;13.43;6.38;;;;;;;2.27;100.00;97382.31;4966949;28;20081;-50
2022/01/21 03:59:34;;;;;;;7.22;5.18;;;;;;;2.13;100.00;97395.94;4965964;28;20082;-53
2022/01/21 04:02:05;;;;;;;14.63;5.75;;;;;;;2.30;100.00;97391.69;4969908;28;21724;-44
2022/01/21 04:04:34;;;;;;;8.57;5.68;;;;;;;2.33;100.00;97392.41;4966180;28;20078;-47
2022/01/21 04:07:03;;;;;;;4.53;4.10;;;;;;;2.24;100.00;97392.00;4966342;28;20097;-50
2022/01/21 04:09:32;;;;;;;6.13;4.88;;;;;;;2.21;100.00;97392.16;4969917;28;20082;-45
2022/01/21 04:12:01;;;;;;;9.13;5.53;;;;;;;1.99;100.00;97381.84;4973222;28;20487;-44
2022/01/21 04:14:32;;;;;;;4.88;4.47;;;;;;;2.05;100.00;97392.00;4967986;28;20074;-51
2022/01/21 04:17:02;;;;;;;5.88;5.18;;;;;;;2.14;100.00;97421.03;4972031;28;20086;-49
2022/01/21 04:19:30;;;;;;;5.72;3.83;;;;;;;1.90;100.00;97425.56;4966850;28;20086;-48
2022/01/21 04:21:59;;;;;;;4.07;3.67;;;;;;;1.62;100.00;97431.13;4962411;28;20070;-45
2022/01/21 04:24:27;;;;;;;3.90;3.50;;;;;;;1.69;100.00;97436.03;4963749;28;20054;-48
2022/01/21 04:26:56;;;;;;;4.28;3.60;;;;;;;1.71;100.00;97445.47;4963384;28;20109;-49
2022/01/21 04:29:24;;;;;;;3.75;3.38;;;;;;;0.99;100.00;97440.69;4963543;28;20525;-51
2022/01/21 04:31:52;;;;;;;4.38;3.78;;;;;;;0.81;100.00;97431.03;4964033;28;20331;-48
2022/01/21 04:34:22;;;;;;;4.40;3.70;;;;;;;0.42;100.00;97439.47;4966494;28;20101;-52
2022/01/21 04:36:51;;;;;;;4.20;3.72;;;;;;;0.36;100.00;97452.66;4972943;28;20570;-53
2022/01/21 04:39:26;;;;;;;3.45;3.22;;;;;;;0.66;100.00;97450.66;4974787;28;20346;-49
2022/01/21 04:47:23;;;;;;;7.15;3.85;;;;;;;1.12;100.00;97451.44;4969147;28;20154;-46
2022/01/21 04:49:53;;;;;;;6.10;3.85;;;;;;;0.74;100.00;97453.78;4971299;28;20674;-48
2022/01/21 04:52:22;;;;;;;9.18;4.30;;;;;;;0.60;100.00;97458.69;4968817;28;20066;-47
2022/01/21 04:54:51;;;;;;;6.03;3.85;;;;;;;0.64;100.00;97455.91;4968700;28;20070;-48
2022/01/21 04:57:20;;;;;;;7.55;4.05;;;;;;;1.04;100.00;97449.16;4968806;28;20063;-49
2022/01/21 04:59:48;;;;;;;9.80;3.97;;;;;;;1.06;100.00;97447.31;4969350;28;20521;-52
2022/01/21 05:02:17;;;;;;;3.95;3.55;;;;;;;0.72;100.00;97453.00;4968908;28;20085;-50
2022/01/21 05:04:46;;;;;;;8.60;4.00;;;;;;;1.27;100.00;97453.38;4968661;28;20073;-48
2022/01/21 05:07:20;;;;;;;9.15;3.85;;;;;;;1.21;100.00;97456.25;4970722;28;20081;-46
2022/01/21 05:09:49;;;;;;;6.75;4.20;;;;;;;1.28;100.00;97454.25;4971500;28;20074;-49
2022/01/21 05:12:20;;;;;;;8.75;3.95;;;;;;;1.37;100.00;97461.66;4973846;28;20073;-50
2022/01/21 05:15:04;;;;;;;4.28;3.60;;;;;;;1.42;100.00;97463.16;4970488;28;20101;-46
2022/01/21 05:17:40;;;;;;;5.20;3.67;;;;;;;1.36;100.00;97460.81;4974751;28;20073;-48
2022/01/21 05:20:10;;;;;;;8.07;3.90;;;;;;;1.43;100.00;97479.59;4968861;28;20189;-51
2022/01/21 05:22:40;;;;;;;5.43;4.28;;;;;;;1.10;100.00;97489.59;4967390;28;20122;-51
2022/01/21 05:25:09;;;;;;;5.30;3.65;;;;;;;1.40;100.00;97483.16;4957823;28;20063;-50
2022/01/21 05:27:38;;;;;;;6.82;4.00;;;;;;;1.51;100.00;97480.13;4956446;28;20617;-50
2022/01/21 05:30:08;;;;;;;6.05;3.95;;;;;;;1.64;100.00;97488.25;4965521;28;20039;-51
2022/01/21 05:32:55;;;;;;;4.40;4.00;;;;;;;1.50;100.00;97495.78;4960096;28;20178;-48
2022/01/21 05:35:23;;;;;;;6.45;3.88;;;;;;;1.57;100.00;97490.25;4968526;28;20085;-46
2022/01/21 05:37:53;;;;;;;8.02;4.05;;;;;;;1.38;100.00;97494.56;4961527;28;20515;-47
2022/01/21 05:40:23;;;;;;;11.02;4.50;;;;;;;1.51;100.00;97506.09;4964884;28;20075;-52
2022/01/21 05:42:52;;;;;;;9.32;4.20;;;;;;;1.33;100.00;97505.09;4956715;28;20467;-47
2022/01/21 05:48:07;;;;;;;7.05;4.05;;;;;;;1.26;100.00;97500.22;4960541;28;20059;-46
2022/01/21 05:50:35;;;;;;;7.55;4.00;;;;;;;1.06;100.00;97504.47;4963095;28;20090;-51
2022/01/21 05:53:09;;;;;;;7.18;4.65;;;;;;;1.01;100.00;97505.56;4972596;28;20556;-50
2022/01/21 05:55:41;;;;;;;9.35;4.00;;;;;;;1.00;100.00;97514.25;4962782;28;20066;-54
2022/01/21 05:58:10;;;;;;;7.82;4.25;;;;;;;0.99;100.00;97513.41;4969151;28;20073;-47
2022/01/21 06:00:38;;;;;;;11.80;4.70;;;;;;;0.98;100.00;97523.84;4969388;28;20533;-48
2022/01/21 06:03:07;;;;;;;8.63;4.57;;;;;;;0.77;100.00;97530.72;4966232;28;20067;-53
2022/01/21 06:05:36;;;;;;;5.25;4.55;;;;;;;0.71;100.00;97540.41;4966788;28;20533;-52
2022/01/21 06:08:07;;;;;;;6.88;4.38;;;;;;;0.09;100.00;97547.88;4968736;28;20113;-48
2022/01/21 06:10:35;;;;;;;7.32;4.47;;;;;;;1.21;100.00;97538.56;4975164;28;20265;-54
2022/01/21 06:13:03;;;;;;;5.25;4.57;;;;;;;0.68;100.00;97540.53;4968490;28;20082;-53
2022/01/21 06:15:34;;;;;;;4.97;4.40;;;;;;;1.24;100.00;97543.59;4962178;28;20501;-49
2022/01/21 06:18:02;;;;;;;11.20;5.05;;;;;;;1.35;100.00;97542.28;4961687;28;20070;-47
2022/01/21 06:20:31;;;;;;;11.02;4.38;;;;;;;1.31;100.00;97532.94;4963824;28;20086;-53
2022/01/21 06:22:59;;;;;;;10.27;4.90;;;;;;;1.22;100.00;97546.28;4963138;28;20086;-50
2022/01/21 06:25:29;;;;;;;8.05;4.65;;;;;;;1.44;100.00;97543.66;4953391;28;20078;-48
2022/01/21 06:27:58;;;;;;;7.13;4.88;;;;;;;1.49;100.00;97549.53;4962175;28;20063;-51
2022/01/21 06:30:26;;;;;;;9.45;5.00;;;;;;;1.27;100.00;97552.13;4963260;28;20066;-47
2022/01/21 06:32:55;;;;;;;6.30;4.72;;;;;;;1.40;100.00;97563.72;4963071;28;20075;-46
2022/01/21 06:35:23;;;;;;;7.28;5.00;;;;;;;1.16;100.00;97552.53;4963876;28;20086;-52
2022/01/21 06:37:52;;;;;;;7.15;5.00;;;;;;;0.17;100.00;97567.47;4960335;28;20054;-49
2022/01/21 06:40:20;;;;;;;8.00;5.07;;;;;;;0.22;100.00;97570.75;4960951;28;20092;-52
2022/01/21 06:42:51;;;;;;;10.25;5.30;;;;;;;-0.23;100.00;97572.34;4959524;28;20059;-48
2022/01/21 06:45:20;;;;;;;36.92;13.73;;;;;;;-0.30;100.00;97576.88;4966013;28;20062;-46
2022/01/21 06:47:49;;;;;;;17.85;8.95;;;;;;;-0.29;100.00;97579.41;4961537;28;20073;-51
2022/01/21 06:50:17;;;;;;;9.98;5.53;;;;;;;-0.21;100.00;97578.28;4966464;28;20462;-49
2022/01/21 06:52:46;;;;;;;15.93;5.72;;;;;;;-0.32;100.00;97576.91;4961248;28;20074;-56
2022/01/21 06:55:14;;;;;;;10.00;5.20;;;;;;;-0.49;100.00;97593.00;4963373;28;20070;-47
2022/01/21 06:57:43;;;;;;;7.93;5.30;;;;;;;-0.62;100.00;97603.78;4963867;28;20074;-50
2022/01/21 07:00:18;;;;;;;10.52;6.43;;;;;;;0.39;100.00;97592.66;4963941;28;20070;-51
2022/01/21 07:02:47;;;;;;;14.32;5.32;;;;;;;0.55;100.00;97590.34;4968467;28;20066;-45
2022/01/21 07:05:16;;;;;;;11.00;4.97;;;;;;;0.69;100.00;97583.78;4966181;28;20105;-47
2022/01/21 07:07:45;;;;;;;9.48;5.55;;;;;;;0.70;100.00;97582.03;4964144;28;20089;-48
2022/01/21 07:10:15;;;;;;;7.45;5.18;;;;;;;0.93;100.00;97592.41;4964516;28;20058;-48
2022/01/21 07:12:45;;;;;;;9.00;5.43;;;;;;;1.37;100.00;97586.41;4963126;28;20529;-46
2022/01/21 07:15:18;;;;;;;9.52;5.68;;;;;;;1.51;100.00;97591.88;4963458;28;20070;-51
2022/01/21 07:17:55;;;;;;;9.77;5.95;;;;;;;1.69;100.00;97603.31;4962567;28;20043;-49
2022/01/21 07:20:24;;;;;;;13.68;5.60;;;;;;;1.61;100.00;97606.22;4963359;28;20105;-50
2022/01/21 07:22:53;;;;;;;9.13;5.43;;;;;;;1.54;100.00;97615.16;4963635;28;20502;-50
2022/01/21 07:25:22;;;;;;;6.95;5.28;;;;;;;1.84;100.00;97607.91;4962212;28;20545;-49
2022/01/21 07:27:51;;;;;;;9.13;5.53;;;;;;;1.03;100.00;97618.84;4963824;28;20067;-52
2022/01/21 07:30:21;;;;;;;11.00;5.68;;;;;;;1.08;100.00;97619.53;4962260;28;20477;-49
2022/01/21 07:32:49;;;;;;;9.27;5.43;;;;;;;1.09;100.00;97618.63;4961695;28;20070;-49
2022/01/21 07:35:18;;;;;;;10.40;5.75;;;;;;;0.54;100.00;97612.03;4966878;28;20105;-46
2022/01/21 07:38:06;;;;;;;11.00;5.40;;;;;;;0.42;100.00;97614.16;4969662;28;20456;-50
2022/01/21 07:40:35;;;;;;;11.63;5.57;;;;;;;0.39;100.00;97610.81;4967190;28;20054;-48
2022/01/21 07:43:04;;;;;;;8.43;6.00;;;;;;;0.65;100.00;97615.94;4965809;28;20073;-46
2022/01/21 07:45:34;;;;;;;10.07;6.45;;;;;;;0.66;100.00;97625.41;4968997;28;20585;-45
2022/01/21 07:48:02;;;;;;;11.20;5.43;;;;;;;0.35;100.00;97620.47;4964774;28;20073;-47
2022/01/21 07:50:32;;;;;;;19.33;6.10;;;;;;;0.54;100.00;97618.06;4966023;28;20079;-46
2022/01/21 07:53:01;;;;;;;16.85;6.05;;;;;;;0.63;100.00;97615.16;4969768;28;20467;-49
2022/01/21 07:55:30;;;;;;;9.98;5.63;;;;;;;0.63;100.00;97622.94;4968348;28;20559;-49
2022/01/21 07:58:00;;;;;;;12.50;6.38;;;;;;;0.77;100.00;97621.59;4966349;28;20074;-43
2022/01/21 08:00:29;;;;;;;10.02;6.32;;;;;;;0.66;100.00;97617.63;4965416;28;20063;-48
2022/01/21 08:02:59;;;;;;;8.15;5.18;;;;;;;0.32;100.00;97620.56;4967226;28;20066;-48
2022/01/21 08:05:32;;;;;;;;;;;;;;;0.56;100.00;97613.69;4971765;28;20085;-53
2022/01/21 08:08:01;;;;;;;9.65;5.78;;;;;;;0.73;100.00;97610.47;4969871;28;19970;-48
2022/01/21 08:10:31;;;;;;;10.38;6.25;;;;;;;0.97;100.00;97613.91;4965920;28;20062;-46
2022/01/21 08:13:00;;;;;;;11.35;6.20;;;;;;;1.12;100.00;97618.53;4969414;28;20081;-49
2022/01/21 08:15:29;;;;;;;10.52;6.10;;;;;;;0.97;100.00;97619.13;4964010;28;20085;-51
2022/01/21 08:18:00;;;;;;;13.55;5.97;;;;;;;0.94;100.00;97612.28;4965568;28;20070;-48
2022/01/21 08:20:29;;;;;;;10.18;5.95;;;;;;;0.93;100.00;97604.56;4966953;28;20637;-50
2022/01/21 08:22:57;;;;;;;10.43;6.55;;;;;;;0.87;100.00;97607.38;4971416;28;20082;-48
2022/01/21 08:25:26;;;;;;;9.30;6.05;;;;;;;0.96;100.00;97604.41;4965037;28;20066;-52
2022/01/21 08:27:54;;;;;;;9.80;6.10;;;;;;;1.18;100.00;97594.91;4965789;28;20078;-49
2022/01/21 08:30:23;;;;;;;8.38;5.75;;;;;;;1.19;100.00;97601.78;4964863;28;20070;-46
2022/01/21 08:32:52;;;;;;;13.60;5.88;;;;;;;1.01;100.00;97606.84;4965465;28;20070;-44
2022/01/21 08:35:22;;;;;;;8.50;5.30;;;;;;;1.37;100.00;97608.03;4964691;28;20081;-55
2022/01/21 08:37:52;;;;;;;10.85;5.97;;;;;;;1.59;100.00;97595.03;4967889;28;20053;-50
2022/01/21 08:40:21;;;;;;;9.30;5.97;;;;;;;1.39;100.00;97595.00;4967531;28;20090;-51
2022/01/21 08:42:49;;;;;;;11.38;6.00;;;;;;;1.87;100.00;97583.53;4964832;28;20502;-50
2022/01/21 08:45:18;;;;;;;10.38;5.90;;;;;;;1.94;100.00;97592.75;4964108;28;20089;-49
2022/01/21 08:47:47;;;;;;;10.50;6.38;;;;;;;2.06;100.00;97602.63;4967745;28;20081;-45
2022/01/21 08:50:18;;;;;;;10.35;5.85;;;;;;;2.01;100.00;97607.19;4968122;28;20094;-51
2022/01/21 08:52:49;;;;;;;13.27;6.88;;;;;;;2.29;100.00;97603.44;4965874;28;20086;-54
2022/01/21 08:55:18;;;;;;;15.70;6.80;;;;;;;3.02;100.00;97604.56;4966631;28;20069;-50
2022/01/21 08:57:48;;;;;;;25.40;10.73;;;;;;;2.98;100.00;97595.19;4964694;28;20579;-50
2022/01/21 09:00:19;;;;;;;10.88;6.55;;;;;;;2.95;100.00;97603.13;4968359;28;20514;-48
2022/01/21 09:02:48;;;;;;;9.07;5.03;;;;;;;3.05;100.00;97599.19;4964277;28;20730;-49
2022/01/21 09:05:17;;;;;;;9.18;5.22;;;;;;;2.21;100.00;97597.72;4971261;28;20157;-46
2022/01/21 09:07:47;;;;;;;6.25;5.05;;;;;;;2.37;100.00;97601.34;4964208;28;20077;-54
2022/01/21 09:10:15;;;;;;;10.60;5.20;;;;;;;2.53;100.00;97599.78;4964919;28;20089;-51
2022/01/21 09:12:44;;;;;;;10.77;5.57;;;;;;;2.67;100.00;97600.94;4966554;28;20070;-45
2022/01/21 09:15:12;;;;;;;10.50;5.40;;;;;;;2.63;100.00;97600.22;4967770;28;20058;-49
2022/01/21 09:17:41;;;;;;;7.78;5.10;;;;;;;2.41;100.00;97605.53;4960063;28;20086;-46
2022/01/21 09:20:10;;;;;;;6.32;4.47;;;;;;;2.24;100.00;97606.25;4964504;28;20110;-49
2022/01/21 09:22:39;;;;;;;8.98;5.68;;;;;;;2.72;100.00;97618.06;4967162;28;20067;-52
2022/01/21 09:25:09;;;;;;;6.85;4.97;;;;;;;2.20;100.00;97609.03;4964805;28;20070;-51
2022/01/21 09:27:37;;;;;;;8.90;5.43;;;;;;;2.31;100.00;97612.03;4963423;28;20077;-50
2022/01/21 09:30:07;;;;;;;11.38;5.63;;;;;;;2.23;100.00;97603.69;4967670;28;20490;-45
2022/01/21 09:32:35;;;;;;;6.55;5.40;;;;;;;2.17;100.00;97609.16;4964020;28;20922;-46
2022/01/21 09:35:05;;;;;;;10.30;5.55;;;;;;;2.61;100.00;97608.13;4966615;28;20469;-49
2022/01/21 09:37:33;;;;;;;15.82;6.18;;;;;;;2.55;100.00;97612.75;4964702;28;20075;-47
2022/01/21 09:40:02;;;;;;;7.00;4.25;;;;;;;2.32;100.00;97617.16;4966683;28;20074;-51
2022/01/21 09:42:34;;;;;;;12.52;5.57;;;;;;;2.74;100.00;97618.81;4963295;28;20120;-45
2022/01/21 09:45:08;;;;;;;5.95;4.47;;;;;;;2.68;100.00;97626.88;4964408;28;20058;-49
2022/01/21 09:47:46;;;;;;;6.68;5.78;;;;;;;2.26;100.00;97624.38;4962513;28;20117;-49
2022/01/21 09:50:16;;;;;;;9.90;5.03;;;;;;;2.76;100.00;97637.00;4967800;28;20089;-47
2022/01/21 09:52:46;;;;;;;10.02;4.95;;;;;;;2.73;100.00;97637.13;4963346;28;20074;-48
2022/01/21 09:55:14;;;;;;;7.05;5.75;;;;;;;3.02;100.00;97628.84;4963144;28;20082;-46
2022/01/21 09:57:48;;;;;;;12.18;4.88;;;;;;;3.44;100.00;97630.41;4956193;28;20070;-47
2022/01/21 10:00:17;;;;;;;4.85;3.90;;;;;;;3.26;100.00;97628.66;4951646;28;20073;-45
2022/01/21 10:02:46;;;;;;;6.57;4.50;;;;;;;2.78;100.00;97641.19;4964355;28;20080;-49
2022/01/21 10:05:15;;;;;;;4.93;4.43;;;;;;;2.77;100.00;97643.88;4967174;28;20502;-47
2022/01/21 10:07:46;;;;;;;8.63;4.50;;;;;;;2.64;100.00;97653.16;4966750;28;20070;-49
2022/01/21 10:10:15;;;;;;;11.98;5.10;;;;;;;3.23;100.00;97647.03;4962611;28;20070;-45
2022/01/21 10:13:01;;;;;;;6.95;4.10;;;;;;;3.16;100.00;97648.22;4961511;28;20062;-47
2022/01/21 10:15:29;;;;;;;16.02;5.93;;;;;;;2.88;100.00;97628.63;4964065;28;20525;-46
2022/01/21 10:18:00;;;;;;;6.13;4.53;;;;;;;2.74;100.00;97639.66;4965582;28;20069;-50
2022/01/21 10:20:39;;;;;;;4.15;3.67;;;;;;;2.90;100.00;97642.44;4964248;28;20097;-50
2022/01/21 10:23:10;;;;;;;4.88;4.05;;;;;;;2.84;100.00;97653.13;4966072;28;20682;-51
2022/01/21 10:25:40;;;;;;;5.13;4.38;;;;;;;2.14;100.00;97641.38;4964558;28;20102;-46
2022/01/21 10:28:12;;;;;;;4.68;4.15;;;;;;;1.99;100.00;97648.03;4965430;28;20062;-48
2022/01/21 10:30:41;;;;;;;6.75;4.55;;;;;;;2.30;100.00;97641.56;4963372;28;20074;-48
2022/01/21 10:33:22;;;;;;;8.18;4.75;;;;;;;2.81;100.00;97651.50;4962990;28;20066;-48
2022/01/21 10:35:52;;;;;;;8.85;5.00;;;;;;;2.33;100.00;97651.84;4963946;28;20066;-46
2022/01/21 10:38:27;;;;;;;8.50;3.83;;;;;;;2.70;100.00;97652.88;4966722;28;20082;-48
2022/01/21 10:41:04;;;;;;;5.00;4.13;;;;;;;2.31;100.00;97656.28;4945017;28;20093;-49
2022/01/21 10:43:34;;;;;;;5.70;4.03;;;;;;;2.11;100.00;97647.53;4961871;28;20066;-48
2022/01/21 10:46:03;;;;;;;10.02;3.63;;;;;;;2.76;100.00;97644.81;4967442;28;20070;-45
2022/01/21 10:48:33;;;;;;;4.82;3.83;;;;;;;3.04;100.00;97642.66;4962516;28;20073;-48
2022/01/21 10:51:20;;;;;;;5.28;3.75;;;;;;;2.91;100.00;97654.53;4968281;28;20081;-47
2022/01/21 10:53:48;;;;;;;3.83;3.40;;;;;;;2.89;100.00;97653.78;4962250;28;20463;-47
2022/01/21 10:56:18;;;;;;;7.05;3.85;;;;;;;2.56;100.00;97651.72;4968966;28;20055;-46
2022/01/21 10:58:51;;;;;;;7.32;4.43;;;;;;;2.90;100.00;97647.66;4944741;28;20078;-52
2022/01/21 11:01:23;;;;;;;5.22;4.20;;;;;;;3.29;100.00;97646.75;4959805;28;20074;-47
2022/01/21 11:04:04;;;;;;;9.10;4.90;;;;;;;2.89;100.00;97645.97;4965616;28;20074;-44
2022/01/21 11:06:41;;;;;;;4.18;3.70;;;;;;;2.58;100.00;97638.63;4965410;28;20066;-45
2022/01/21 11:09:17;;;;;;;5.97;4.72;;;;;;;2.23;100.00;97637.53;4964636;28;20062;-45
2022/01/21 11:11:46;;;;;;;8.07;4.65;;;;;;;2.28;100.00;97633.81;4962216;28;20105;-53
2022/01/21 11:14:17;;;;;;;13.68;4.25;;;;;;;2.30;100.00;97631.16;4962105;28;20070;-44
2022/01/21 11:16:50;;;;;;;8.38;4.38;;;;;;;2.30;100.00;97645.00;4964755;28;20636;-46
2022/01/21 11:19:38;;;;;;;11.02;5.15;;;;;;;2.94;100.00;97632.72;4962066;28;20066;-45
2022/01/21 11:22:07;;;;;;;9.10;4.88;;;;;;;3.02;100.00;97620.19;4962674;28;20458;-50
2022/01/21 11:24:48;;;;;;;9.23;4.47;;;;;;;2.99;100.00;97609.91;4961678;28;20470;-48
2022/01/21 11:27:31;;;;;;;6.38;4.40;;;;;;;2.31;100.00;97612.88;4965242;28;20489;-47
2022/01/21 11:30:01;;;;;;;8.70;4.35;;;;;;;2.28;100.00;97612.16;4966272;28;20077;-49
2022/01/21 11:32:29;;;;;;;8.65;4.85;;;;;;;2.15;100.00;97614.44;4960893;28;20094;-45
2022/01/21 11:34:58;;;;;;;11.70;4.43;;;;;;;2.01;100.00;97602.00;4966564;28;20086;-52
2022/01/21 11:37:26;;;;;;;16.40;5.45;;;;;;;2.60;100.00;97606.41;4964918;28;20055;-45
2022/01/21 11:39:56;;;;;;;9.10;4.70;;;;;;;2.67;100.00;97599.16;4962289;28;20132;-46
2022/01/21 11:42:25;;;;;;;8.27;4.57;;;;;;;2.43;100.00;97598.47;4962696;28;20085;-50
2022/01/21 11:45:03;;;;;;;6.68;4.28;;;;;;;2.78;100.00;97591.72;4964793;28;20522;-45
2022/01/21 11:48:00;;;;;;;4.38;3.90;;;;;;;2.40;100.00;97593.41;4964809;28;20082;-46
2022/01/21 11:50:30;;;;;;;8.55;5.13;;;;;;;2.82;100.00;97592.41;4963500;28;20089;-46
2022/01/21 11:52:58;;;;;;;7.60;4.65;;;;;;;2.92;100.00;97596.28;4964206;28;20081;-45
2022/01/21 11:55:31;;;;;;;8.73;4.43;;;;;;;2.31;100.00;97593.81;4964020;28;20406;-46
2022/01/21 11:58:14;;;;;;;6.55;4.10;;;;;;;2.25;100.00;97584.50;4964864;28;20430;-44
2022/01/21 12:00:43;;;;;;;9.02;4.50;;;;;;;2.57;100.00;97567.47;4958496;28;20078;-45
2022/01/21 12:03:13;;;;;;;6.60;4.05;;;;;;;2.20;100.00;97560.41;4961237;28;20113;-45
2022/01/21 12:05:42;;;;;;;9.43;5.07;;;;;;;2.48;100.00;97559.22;4963569;28;20477;-49
2022/01/21 12:08:10;;;;;;;9.48;4.47;;;;;;;2.63;100.00;97552.50;4981474;28;20608;-45
2022/01/21 12:10:42;;;;;;;11.80;5.00;;;;;;;2.74;100.00;97547.66;4961755;28;20075;-44
2022/01/21 12:13:17;;;;;;;7.47;4.70;;;;;;;2.70;100.00;97562.56;4961034;28;20063;-47
2022/01/21 12:19:21;;;;;;;4.10;3.55;;;;;;;2.90;100.00;97548.66;4963206;28;20116;-47
2022/01/21 12:21:51;;;;;;;8.20;4.55;;;;;;;2.55;100.00;97558.91;4964996;28;20063;-42
2022/01/21 12:24:38;;;;;;;;;;;;;;;3.19;100.00;97536.00;4962254;28;20058;-46
2022/01/21 12:27:09;;;;;;;6.78;4.88;;;;;;;2.85;100.00;97554.03;4965995;28;19953;-52
2022/01/21 12:29:37;;;;;;;5.00;4.22;;;;;;;2.34;100.00;97546.81;4965652;28;20082;-47
2022/01/21 12:32:14;;;;;;;9.65;4.90;;;;;;;2.37;100.00;97528.47;4967009;28;20154;-48